sensor_id;sensor_type;location;lat;lon;timestamp;temperature;humidity
9668;DHT22;4872;48.316;10.650;2023-04-25T04:06:16;7.60;93.60
9668;DHT22;4872;48.316;10.650;2023-04-25T04:08:43;7.70;93.40
9668;DHT22;4872;48.316;10.650;2023-04-25T04:11:10;7.70;93.40
9668;DHT22;4872;48.316;10.650;2023-04-25T04:13:37;7.70;93.60
9668;DHT22;4872;48.316;10.650;2023-04-25T04:16:04;7.80;93.70
9668;DHT22;4872;48.316;10.650;2023-04-25T04:18:31;7.70;93.60
9668;DHT22;4872;48.316;10.650;2023-04-25T04:20:58;7.50;93.60
9668;DHT22;4872;48.316;10.650;2023-04-25T04:23:26;7.50;93.90
9668;DHT22;4872;48.316;10.650;2023-04-25T04:25:54;7.90;94.40
9668;DHT22;4872;48.316;10.650;2023-04-25T04:28:21;7.50;94.60
9668;DHT22;4872;48.316;10.650;2023-04-25T04:30:48;7.50;94.80
9668;DHT22;4872;48.316;10.650;2023-04-25T04:33:16;7.40;94.60
9668;DHT22;4872;48.316;10.650;2023-04-25T04:35:44;7.40;94.90
9668;DHT22;4872;48.316;10.650;2023-04-25T04:38:12;7.60;95.10
9668;DHT22;4872;48.316;10.650;2023-04-25T04:40:41;7.40;95.20
9668;DHT22;4872;48.316;10.650;2023-04-25T04:43:08;7.40;95.20
9668;DHT22;4872;48.316;10.650;2023-04-25T04:45:36;7.40;95.40
9668;DHT22;4872;48.316;10.650;2023-04-25T04:48:04;7.50;95.50
9668;DHT22;4872;48.316;10.650;2023-04-25T04:50:31;7.50;95.50
9668;DHT22;4872;48.316;10.650;2023-04-25T04:52:58;7.50;95.80
9668;DHT22;4872;48.316;10.650;2023-04-25T04:55:25;7.50;96.20
9668;DHT22;4872;48.316;10.650;2023-04-25T04:57:53;7.50;95.80
9668;DHT22;4872;48.316;10.650;2023-04-25T05:00:20;7.60;96.20
9668;DHT22;4872;48.316;10.650;2023-04-25T05:02:47;7.50;96.50
9668;DHT22;4872;48.316;10.650;2023-04-25T05:05:14;7.50;96.60
9668;DHT22;4872;48.316;10.650;2023-04-25T05:07:40;7.40;96.70
9668;DHT22;4872;48.316;10.650;2023-04-25T05:10:08;7.40;96.80
9668;DHT22;4872;48.316;10.650;2023-04-25T05:12:35;7.50;97.00
9668;DHT22;4872;48.316;10.650;2023-04-25T05:15:03;7.50;97.10
9668;DHT22;4872;48.316;10.650;2023-04-25T05:17:30;7.50;97.00
9668;DHT22;4872;48.316;10.650;2023-04-25T05:19:58;7.50;97.00
9668;DHT22;4872;48.316;10.650;2023-04-25T05:22:24;7.50;97.30
9668;DHT22;4872;48.316;10.650;2023-04-25T05:24:51;7.40;97.10
9668;DHT22;4872;48.316;10.650;2023-04-25T05:27:18;8.00;97.40
9668;DHT22;4872;48.316;10.650;2023-04-25T05:29:45;7.50;97.50
9668;DHT22;4872;48.316;10.650;2023-04-25T05:32:13;7.70;97.40
9668;DHT22;4872;48.316;10.650;2023-04-25T05:34:40;8.60;97.50
9668;DHT22;4872;48.316;10.650;2023-04-25T05:37:08;7.60;97.30
9668;DHT22;4872;48.316;10.650;2023-04-25T05:39:35;7.60;97.10
9668;DHT22;4872;48.316;10.650;2023-04-25T05:42:01;7.60;97.00
9668;DHT22;4872;48.316;10.650;2023-04-25T05:44:29;7.70;97.00
9668;DHT22;4872;48.316;10.650;2023-04-25T05:46:56;7.70;96.50
9668;DHT22;4872;48.316;10.650;2023-04-25T05:49:24;7.60;97.10
9668;DHT22;4872;48.316;10.650;2023-04-25T05:51:51;7.60;96.90
9668;DHT22;4872;48.316;10.650;2023-04-25T05:54:18;7.70;97.20
9668;DHT22;4872;48.316;10.650;2023-04-25T05:56:44;7.80;97.30
9668;DHT22;4872;48.316;10.650;2023-04-25T05:59:11;8.00;97.70
9668;DHT22;4872;48.316;10.650;2023-04-25T06:01:38;7.70;97.50
9668;DHT22;4872;48.316;10.650;2023-04-25T06:04:05;7.80;97.70
9668;DHT22;4872;48.316;10.650;2023-04-25T06:06:33;7.90;97.50
9668;DHT22;4872;48.316;10.650;2023-04-25T06:09:00;8.00;97.30
9668;DHT22;4872;48.316;10.650;2023-04-25T06:11:27;8.00;97.10
9668;DHT22;4872;48.316;10.650;2023-04-25T06:13:53;8.50;97.20
9668;DHT22;4872;48.316;10.650;2023-04-25T06:16:20;8.30;96.90
9668;DHT22;4872;48.316;10.650;2023-04-25T06:18:47;8.30;97.20
9668;DHT22;4872;48.316;10.650;2023-04-25T06:21:14;8.30;97.20
9668;DHT22;4872;48.316;10.650;2023-04-25T06:23:42;8.60;97.80
9668;DHT22;4872;48.316;10.650;2023-04-25T06:26:09;8.50;97.50
9668;DHT22;4872;48.316;10.650;2023-04-25T06:28:36;8.30;97.10
9668;DHT22;4872;48.316;10.650;2023-04-25T06:31:04;8.10;97.40
9668;DHT22;4872;48.316;10.650;2023-04-25T06:33:30;7.80;97.90
9668;DHT22;4872;48.316;10.650;2023-04-25T06:35:57;9.20;98.50
9668;DHT22;4872;48.316;10.650;2023-04-25T06:38:24;8.10;98.30
9668;DHT22;4872;48.316;10.650;2023-04-25T06:40:52;7.70;98.10
9668;DHT22;4872;48.316;10.650;2023-04-25T06:43:19;9.20;98.90
9668;DHT22;4872;48.316;10.650;2023-04-25T06:45:45;8.00;98.60
9668;DHT22;4872;48.316;10.650;2023-04-25T06:48:12;8.90;99.10
9668;DHT22;4872;48.316;10.650;2023-04-25T06:50:39;7.90;99.00
9668;DHT22;4872;48.316;10.650;2023-04-25T06:53:06;7.70;98.40
9668;DHT22;4872;48.316;10.650;2023-04-25T06:55:34;7.80;98.50
9668;DHT22;4872;48.316;10.650;2023-04-25T06:58:02;7.90;98.30
9668;DHT22;4872;48.316;10.650;2023-04-25T07:00:29;7.90;98.40
9668;DHT22;4872;48.316;10.650;2023-04-25T07:02:57;8.10;98.20
9668;DHT22;4872;48.316;10.650;2023-04-25T07:05:24;8.30;97.70
9668;DHT22;4872;48.316;10.650;2023-04-25T07:07:51;8.50;97.50
9668;DHT22;4872;48.316;10.650;2023-04-25T07:10:17;9.20;97.40
9668;DHT22;4872;48.316;10.650;2023-04-25T07:12:44;9.70;97.20
9668;DHT22;4872;48.316;10.650;2023-04-25T07:15:12;8.60;96.80
9668;DHT22;4872;48.316;10.650;2023-04-25T07:17:39;9.60;97.10
9668;DHT22;4872;48.316;10.650;2023-04-25T07:20:07;8.90;96.60
9668;DHT22;4872;48.316;10.650;2023-04-25T07:22:34;8.70;96.10
9668;DHT22;4872;48.316;10.650;2023-04-25T07:25:01;8.80;96.00
9668;DHT22;4872;48.316;10.650;2023-04-25T07:27:29;8.80;96.60
9668;DHT22;4872;48.316;10.650;2023-04-25T07:29:56;8.80;96.10
9668;DHT22;4872;48.316;10.650;2023-04-25T07:32:25;9.20;96.90
9668;DHT22;4872;48.316;10.650;2023-04-25T07:34:52;9.00;96.30
9668;DHT22;4872;48.316;10.650;2023-04-25T07:37:18;9.00;96.20
9668;DHT22;4872;48.316;10.650;2023-04-25T07:39:45;9.10;96.00
9668;DHT22;4872;48.316;10.650;2023-04-25T07:42:12;9.10;95.50
9668;DHT22;4872;48.316;10.650;2023-04-25T07:44:39;9.50;95.30
9668;DHT22;4872;48.316;10.650;2023-04-25T07:47:08;9.70;96.00
9668;DHT22;4872;48.316;10.650;2023-04-25T07:49:37;9.40;94.40
9668;DHT22;4872;48.316;10.650;2023-04-25T07:52:05;9.30;95.10
9668;DHT22;4872;48.316;10.650;2023-04-25T07:54:32;9.40;94.30
9668;DHT22;4872;48.316;10.650;2023-04-25T07:56:59;9.60;94.40
9668;DHT22;4872;48.316;10.650;2023-04-25T07:59:26;10.30;93.00
9668;DHT22;4872;48.316;10.650;2023-04-25T08:01:52;10.10;93.20
9668;DHT22;4872;48.316;10.650;2023-04-25T08:04:19;10.30;93.50
9668;DHT22;4872;48.316;10.650;2023-04-25T08:06:47;10.50;92.30
9668;DHT22;4872;48.316;10.650;2023-04-25T08:09:14;10.70;92.00
9668;DHT22;4872;48.316;10.650;2023-04-25T08:11:42;10.80;91.40
9668;DHT22;4872;48.316;10.650;2023-04-25T08:14:09;10.70;91.00
9668;DHT22;4872;48.316;10.650;2023-04-25T08:16:35;10.40;90.40
9668;DHT22;4872;48.316;10.650;2023-04-25T08:19:02;10.50;90.70
9668;DHT22;4872;48.316;10.650;2023-04-25T08:21:29;10.30;90.00
9668;DHT22;4872;48.316;10.650;2023-04-25T08:23:57;10.10;91.50
9668;DHT22;4872;48.316;10.650;2023-04-25T08:26:24;10.10;91.30
9668;DHT22;4872;48.316;10.650;2023-04-25T08:28:51;10.00;91.00
9668;DHT22;4872;48.316;10.650;2023-04-25T08:31:17;9.90;91.20
9668;DHT22;4872;48.316;10.650;2023-04-25T08:33:44;9.80;90.60
9668;DHT22;4872;48.316;10.650;2023-04-25T08:36:11;9.70;90.60
9668;DHT22;4872;48.316;10.650;2023-04-25T08:38:38;9.70;90.80
9668;DHT22;4872;48.316;10.650;2023-04-25T08:41:06;10.30;90.20
9668;DHT22;4872;48.316;10.650;2023-04-25T08:43:34;10.00;90.20
9668;DHT22;4872;48.316;10.650;2023-04-25T08:46:01;9.70;90.60
9668;DHT22;4872;48.316;10.650;2023-04-25T08:48:29;9.60;91.30
9668;DHT22;4872;48.316;10.650;2023-04-25T08:50:58;9.70;91.60
9668;DHT22;4872;48.316;10.650;2023-04-25T08:53:27;9.70;91.50
9668;DHT22;4872;48.316;10.650;2023-04-25T08:55:56;9.70;91.10
9668;DHT22;4872;48.316;10.650;2023-04-25T08:58:24;9.60;91.50
9668;DHT22;4872;48.316;10.650;2023-04-25T09:00:52;9.70;92.40
9668;DHT22;4872;48.316;10.650;2023-04-25T09:03:19;9.70;91.90
9668;DHT22;4872;48.316;10.650;2023-04-25T09:05:46;9.70;91.50
9668;DHT22;4872;48.316;10.650;2023-04-25T09:08:12;9.70;92.40
9668;DHT22;4872;48.316;10.650;2023-04-25T09:10:40;10.00;91.10
9668;DHT22;4872;48.316;10.650;2023-04-25T09:13:08;9.30;91.10
9668;DHT22;4872;48.316;10.650;2023-04-25T09:15:47;9.20;91.50
9668;DHT22;4872;48.316;10.650;2023-04-25T09:18:22;9.30;91.20
9668;DHT22;4872;48.316;10.650;2023-04-25T09:20:48;9.50;91.20
9668;DHT22;4872;48.316;10.650;2023-04-25T09:23:15;9.80;91.20
9668;DHT22;4872;48.316;10.650;2023-04-25T09:25:42;9.70;91.20
9668;DHT22;4872;48.316;10.650;2023-04-25T09:28:11;9.70;91.70
9668;DHT22;4872;48.316;10.650;2023-04-25T09:30:38;9.50;92.00
9668;DHT22;4872;48.316;10.650;2023-04-25T09:33:07;9.80;92.40
9668;DHT22;4872;48.316;10.650;2023-04-25T09:35:38;10.10;91.20
9668;DHT22;4872;48.316;10.650;2023-04-25T09:38:10;10.00;90.80
9668;DHT22;4872;48.316;10.650;2023-04-25T09:40:41;10.10;90.10
9668;DHT22;4872;48.316;10.650;2023-04-25T09:43:21;10.20;89.50
9668;DHT22;4872;48.316;10.650;2023-04-25T09:45:48;10.20;90.20
9668;DHT22;4872;48.316;10.650;2023-04-25T09:48:19;10.20;90.30
9668;DHT22;4872;48.316;10.650;2023-04-25T09:50:47;10.10;90.80
9668;DHT22;4872;48.316;10.650;2023-04-25T09:53:29;9.60;91.30
9668;DHT22;4872;48.316;10.650;2023-04-25T09:55:59;9.70;92.30
9668;DHT22;4872;48.316;10.650;2023-04-25T09:58:29;9.90;92.10
9668;DHT22;4872;48.316;10.650;2023-04-25T10:01:00;10.40;91.70
9668;DHT22;4872;48.316;10.650;2023-04-25T10:03:29;10.10;91.20
9668;DHT22;4872;48.316;10.650;2023-04-25T10:05:58;10.00;91.10
9668;DHT22;4872;48.316;10.650;2023-04-25T10:08:29;10.00;90.20
9668;DHT22;4872;48.316;10.650;2023-04-25T10:10:59;10.00;90.30
9668;DHT22;4872;48.316;10.650;2023-04-25T10:13:27;10.10;90.30
9668;DHT22;4872;48.316;10.650;2023-04-25T10:15:56;10.20;88.70
9668;DHT22;4872;48.316;10.650;2023-04-25T10:18:24;10.30;88.90
9668;DHT22;4872;48.316;10.650;2023-04-25T10:20:53;10.90;90.20
9668;DHT22;4872;48.316;10.650;2023-04-25T10:23:23;10.70;89.60
9668;DHT22;4872;48.316;10.650;2023-04-25T10:25:51;10.80;89.50
9668;DHT22;4872;48.316;10.650;2023-04-25T10:28:19;10.70;90.10
9668;DHT22;4872;48.316;10.650;2023-04-25T10:30:59;11.20;89.80
9668;DHT22;4872;48.316;10.650;2023-04-25T10:33:35;10.90;88.50
9668;DHT22;4872;48.316;10.650;2023-04-25T10:36:11;10.90;89.20
9668;DHT22;4872;48.316;10.650;2023-04-25T10:38:39;11.00;89.20
9668;DHT22;4872;48.316;10.650;2023-04-25T10:41:10;11.00;89.20
9668;DHT22;4872;48.316;10.650;2023-04-25T10:43:38;11.10;87.40
9668;DHT22;4872;48.316;10.650;2023-04-25T10:46:19;10.40;88.60
9668;DHT22;4872;48.316;10.650;2023-04-25T10:48:49;10.50;90.00
9668;DHT22;4872;48.316;10.650;2023-04-25T10:51:20;10.70;91.60
9668;DHT22;4872;48.316;10.650;2023-04-25T10:53:57;9.30;92.30
9668;DHT22;4872;48.316;10.650;2023-04-25T10:56:26;9.00;92.70
9668;DHT22;4872;48.316;10.650;2023-04-25T10:59:04;8.90;92.30
9668;DHT22;4872;48.316;10.650;2023-04-25T11:01:36;9.20;93.00
9668;DHT22;4872;48.316;10.650;2023-04-25T11:04:03;8.40;93.50
9668;DHT22;4872;48.316;10.650;2023-04-25T11:06:37;8.30;94.60
9668;DHT22;4872;48.316;10.650;2023-04-25T11:09:10;8.40;95.60
9668;DHT22;4872;48.316;10.650;2023-04-25T11:11:38;8.20;95.70
9668;DHT22;4872;48.316;10.650;2023-04-25T11:14:05;8.20;96.70
9668;DHT22;4872;48.316;10.650;2023-04-25T11:16:32;8.20;96.60
9668;DHT22;4872;48.316;10.650;2023-04-25T11:18:59;8.70;97.40
9668;DHT22;4872;48.316;10.650;2023-04-25T11:21:26;8.00;97.70
9668;DHT22;4872;48.316;10.650;2023-04-25T11:23:54;7.80;97.30
9668;DHT22;4872;48.316;10.650;2023-04-25T11:26:23;7.70;97.80
9668;DHT22;4872;48.316;10.650;2023-04-25T11:28:50;8.00;98.60
9668;DHT22;4872;48.316;10.650;2023-04-25T11:31:20;6.80;99.20
9668;DHT22;4872;48.316;10.650;2023-04-25T11:33:47;6.40;99.90
9668;DHT22;4872;48.316;10.650;2023-04-25T11:36:13;6.30;99.90
9668;DHT22;4872;48.316;10.650;2023-04-25T11:38:40;6.30;99.90
9668;DHT22;4872;48.316;10.650;2023-04-25T11:41:08;6.10;99.90
9668;DHT22;4872;48.316;10.650;2023-04-25T11:43:35;6.60;99.90
9668;DHT22;4872;48.316;10.650;2023-04-25T11:46:06;6.00;99.90
9668;DHT22;4872;48.316;10.650;2023-04-25T11:48:37;6.40;99.90
9668;DHT22;4872;48.316;10.650;2023-04-25T11:51:04;6.10;99.90
9668;DHT22;4872;48.316;10.650;2023-04-25T11:53:31;5.90;99.90
9668;DHT22;4872;48.316;10.650;2023-04-25T11:55:59;6.00;99.90
9668;DHT22;4872;48.316;10.650;2023-04-25T11:58:28;6.00;99.90
9668;DHT22;4872;48.316;10.650;2023-04-25T12:00:55;5.90;99.90
9668;DHT22;4872;48.316;10.650;2023-04-25T12:03:24;6.40;99.90
9668;DHT22;4872;48.316;10.650;2023-04-25T12:06:02;6.30;99.90
9668;DHT22;4872;48.316;10.650;2023-04-25T12:08:29;6.60;99.90
9668;DHT22;4872;48.316;10.650;2023-04-25T12:10:56;6.30;99.90
9668;DHT22;4872;48.316;10.650;2023-04-25T12:13:24;6.40;99.90
9668;DHT22;4872;48.316;10.650;2023-04-25T12:15:54;6.30;99.90
9668;DHT22;4872;48.316;10.650;2023-04-25T12:18:23;6.50;99.90
9668;DHT22;4872;48.316;10.650;2023-04-25T12:20:52;6.20;99.90
9668;DHT22;4872;48.316;10.650;2023-04-25T12:23:25;6.30;99.90
9668;DHT22;4872;48.316;10.650;2023-04-25T12:25:53;6.20;99.90
9668;DHT22;4872;48.316;10.650;2023-04-25T12:28:22;6.40;99.90
9668;DHT22;4872;48.316;10.650;2023-04-25T12:30:58;6.10;99.90
9668;DHT22;4872;48.316;10.650;2023-04-25T12:33:28;6.10;99.90
9668;DHT22;4872;48.316;10.650;2023-04-25T12:35:56;6.80;99.90
9668;DHT22;4872;48.316;10.650;2023-04-25T12:38:24;6.10;99.90
9668;DHT22;4872;48.316;10.650;2023-04-25T12:40:51;6.20;99.90
9668;DHT22;4872;48.316;10.650;2023-04-25T12:43:17;6.30;99.90
9668;DHT22;4872;48.316;10.650;2023-04-25T12:45:44;6.40;99.90
9668;DHT22;4872;48.316;10.650;2023-04-25T12:48:12;6.80;99.90
9668;DHT22;4872;48.316;10.650;2023-04-25T12:50:39;6.60;99.90
9668;DHT22;4872;48.316;10.650;2023-04-25T12:53:06;6.70;99.90
9668;DHT22;4872;48.316;10.650;2023-04-25T12:55:33;6.90;99.90
9668;DHT22;4872;48.316;10.650;2023-04-25T12:58:00;7.30;99.90
9668;DHT22;4872;48.316;10.650;2023-04-25T13:00:28;7.40;99.90
9668;DHT22;4872;48.316;10.650;2023-04-25T13:02:55;7.60;99.90
9668;DHT22;4872;48.316;10.650;2023-04-25T13:05:23;7.80;99.90
9668;DHT22;4872;48.316;10.650;2023-04-25T13:07:50;7.60;99.90
9668;DHT22;4872;48.316;10.650;2023-04-25T13:10:17;7.70;99.90
9668;DHT22;4872;48.316;10.650;2023-04-25T13:12:43;8.00;99.90
9668;DHT22;4872;48.316;10.650;2023-04-25T13:15:11;8.30;99.90
9668;DHT22;4872;48.316;10.650;2023-04-25T13:17:37;7.60;99.90
9668;DHT22;4872;48.316;10.650;2023-04-25T13:20:05;7.70;99.90
9668;DHT22;4872;48.316;10.650;2023-04-25T13:22:35;7.60;99.90
9668;DHT22;4872;48.316;10.650;2023-04-25T13:25:03;7.40;99.90
9668;DHT22;4872;48.316;10.650;2023-04-25T13:27:30;7.40;99.90
9668;DHT22;4872;48.316;10.650;2023-04-25T13:29:59;7.40;99.90
9668;DHT22;4872;48.316;10.650;2023-04-25T13:32:26;7.60;99.90
9668;DHT22;4872;48.316;10.650;2023-04-25T13:34:53;7.20;99.90
9668;DHT22;4872;48.316;10.650;2023-04-25T13:37:20;7.10;99.90
9668;DHT22;4872;48.316;10.650;2023-04-25T13:39:50;7.50;99.90
9668;DHT22;4872;48.316;10.650;2023-04-25T13:42:17;7.10;99.90
9668;DHT22;4872;48.316;10.650;2023-04-25T13:44:44;7.10;99.90
9668;DHT22;4872;48.316;10.650;2023-04-25T13:47:11;7.00;99.90
9668;DHT22;4872;48.316;10.650;2023-04-25T13:49:38;7.50;99.90
9668;DHT22;4872;48.316;10.650;2023-04-25T13:52:04;7.70;99.90
9668;DHT22;4872;48.316;10.650;2023-04-25T13:54:31;7.10;99.90
9668;DHT22;4872;48.316;10.650;2023-04-25T13:56:59;7.60;99.90
9668;DHT22;4872;48.316;10.650;2023-04-25T13:59:27;7.00;99.90
9668;DHT22;4872;48.316;10.650;2023-04-25T14:01:54;7.00;99.90
9668;DHT22;4872;48.316;10.650;2023-04-25T14:04:20;7.00;99.90
9668;DHT22;4872;48.316;10.650;2023-04-25T14:06:47;7.00;99.90
9668;DHT22;4872;48.316;10.650;2023-04-25T14:09:14;7.10;99.90
9668;DHT22;4872;48.316;10.650;2023-04-25T14:11:41;7.20;99.90
9668;DHT22;4872;48.316;10.650;2023-04-25T14:14:09;8.30;99.90
9668;DHT22;4872;48.316;10.650;2023-04-25T14:16:36;7.10;99.90
9668;DHT22;4872;48.316;10.650;2023-04-25T14:19:02;8.40;99.90
9668;DHT22;4872;48.316;10.650;2023-04-25T14:21:29;7.60;99.90
9668;DHT22;4872;48.316;10.650;2023-04-25T14:23:58;7.90;99.90
9668;DHT22;4872;48.316;10.650;2023-04-25T14:26:24;7.90;99.90
9668;DHT22;4872;48.316;10.650;2023-04-25T14:28:52;8.00;99.90
9668;DHT22;4872;48.316;10.650;2023-04-25T14:31:20;8.00;99.90
9668;DHT22;4872;48.316;10.650;2023-04-25T14:33:47;8.50;99.90
9668;DHT22;4872;48.316;10.650;2023-04-25T14:36:13;8.10;99.90
9668;DHT22;4872;48.316;10.650;2023-04-25T14:38:40;8.30;99.90
9668;DHT22;4872;48.316;10.650;2023-04-25T14:41:07;8.40;99.90
9668;DHT22;4872;48.316;10.650;2023-04-25T14:43:34;7.80;99.90
9668;DHT22;4872;48.316;10.650;2023-04-25T14:46:01;8.00;99.90
9668;DHT22;4872;48.316;10.650;2023-04-25T14:48:30;7.70;99.90
9668;DHT22;4872;48.316;10.650;2023-04-25T14:50:56;7.70;99.90
9668;DHT22;4872;48.316;10.650;2023-04-25T14:53:23;7.70;99.90
9668;DHT22;4872;48.316;10.650;2023-04-25T14:55:50;7.70;99.90
9668;DHT22;4872;48.316;10.650;2023-04-25T14:58:17;7.70;99.90
9668;DHT22;4872;48.316;10.650;2023-04-25T15:00:44;8.10;99.90
9668;DHT22;4872;48.316;10.650;2023-04-25T15:03:11;8.10;99.90
9668;DHT22;4872;48.316;10.650;2023-04-25T15:05:40;8.20;99.90
9668;DHT22;4872;48.316;10.650;2023-04-25T15:08:07;8.30;99.90
9668;DHT22;4872;48.316;10.650;2023-04-25T15:10:33;8.70;99.90
9668;DHT22;4872;48.316;10.650;2023-04-25T15:13:00;8.70;99.90
9668;DHT22;4872;48.316;10.650;2023-04-25T15:15:27;8.80;99.90
9668;DHT22;4872;48.316;10.650;2023-04-25T15:17:57;8.90;99.90
9668;DHT22;4872;48.316;10.650;2023-04-25T15:20:24;8.90;99.90
9668;DHT22;4872;48.316;10.650;2023-04-25T15:22:52;9.00;99.90
9668;DHT22;4872;48.316;10.650;2023-04-25T15:25:19;9.70;99.90
9668;DHT22;4872;48.316;10.650;2023-04-25T15:27:46;9.30;99.90
9668;DHT22;4872;48.316;10.650;2023-04-25T15:30:14;9.70;99.90
9668;DHT22;4872;48.316;10.650;2023-04-25T15:32:42;9.50;99.90
9668;DHT22;4872;48.316;10.650;2023-04-25T15:35:09;10.10;99.60
9668;DHT22;4872;48.316;10.650;2023-04-25T15:37:37;10.00;97.20
9668;DHT22;4872;48.316;10.650;2023-04-25T15:40:07;10.80;97.60
9668;DHT22;4872;48.316;10.650;2023-04-25T15:42:35;11.00;94.70
9668;DHT22;4872;48.316;10.650;2023-04-25T15:45:03;11.30;95.30
9668;DHT22;4872;48.316;10.650;2023-04-25T15:47:30;11.80;94.00
9668;DHT22;4872;48.316;10.650;2023-04-25T15:49:56;11.60;93.70
9668;DHT22;4872;48.316;10.650;2023-04-25T15:52:23;11.80;93.60
9668;DHT22;4872;48.316;10.650;2023-04-25T15:54:50;11.50;93.80
9668;DHT22;4872;48.316;10.650;2023-04-25T15:57:18;12.00;93.80
9668;DHT22;4872;48.316;10.650;2023-04-25T15:59:47;11.90;93.50
9668;DHT22;4872;48.316;10.650;2023-04-25T16:02:14;12.00;92.90
9668;DHT22;4872;48.316;10.650;2023-04-25T16:04:41;11.40;93.00
9668;DHT22;4872;48.316;10.650;2023-04-25T16:07:08;11.70;92.80
9668;DHT22;4872;48.316;10.650;2023-04-25T16:09:35;12.30;92.30
9668;DHT22;4872;48.316;10.650;2023-04-25T16:12:04;12.80;92.10
9668;DHT22;4872;48.316;10.650;2023-04-25T16:14:33;12.00;92.20
9668;DHT22;4872;48.316;10.650;2023-04-25T16:17:01;11.40;92.30
9668;DHT22;4872;48.316;10.650;2023-04-25T16:19:28;10.90;93.70
9668;DHT22;4872;48.316;10.650;2023-04-25T16:21:54;10.30;94.30
9668;DHT22;4872;48.316;10.650;2023-04-25T16:24:22;9.90;95.10
9668;DHT22;4872;48.316;10.650;2023-04-25T16:26:48;9.80;95.20
9668;DHT22;4872;48.316;10.650;2023-04-25T16:29:15;10.40;95.20
9668;DHT22;4872;48.316;10.650;2023-04-25T16:31:43;9.70;94.70
9668;DHT22;4872;48.316;10.650;2023-04-25T16:34:12;10.00;94.90
9668;DHT22;4872;48.316;10.650;2023-04-25T16:36:39;9.50;95.30
9668;DHT22;4872;48.316;10.650;2023-04-25T16:39:06;9.60;96.00
9668;DHT22;4872;48.316;10.650;2023-04-25T16:41:34;10.00;96.30
9668;DHT22;4872;48.316;10.650;2023-04-25T16:44:01;9.10;96.50
9668;DHT22;4872;48.316;10.650;2023-04-25T16:46:27;9.00;97.00
9668;DHT22;4872;48.316;10.650;2023-04-25T16:48:56;9.40;97.40
9668;DHT22;4872;48.316;10.650;2023-04-25T16:51:22;8.90;97.50
9668;DHT22;4872;48.316;10.650;2023-04-25T16:53:49;9.10;97.80
9668;DHT22;4872;48.316;10.650;2023-04-25T16:56:16;9.20;97.60
9668;DHT22;4872;48.316;10.650;2023-04-25T16:58:43;8.80;97.60
9668;DHT22;4872;48.316;10.650;2023-04-25T17:01:10;9.20;98.60
9668;DHT22;4872;48.316;10.650;2023-04-25T17:03:40;9.00;98.50
9668;DHT22;4872;48.316;10.650;2023-04-25T17:06:09;9.10;98.30
9668;DHT22;4872;48.316;10.650;2023-04-25T17:08:36;9.30;98.30
9668;DHT22;4872;48.316;10.650;2023-04-25T17:11:03;9.30;97.90
9668;DHT22;4872;48.316;10.650;2023-04-25T17:13:30;9.30;97.60
9668;DHT22;4872;48.316;10.650;2023-04-25T17:15:57;9.50;97.70
9668;DHT22;4872;48.316;10.650;2023-04-25T17:18:24;9.60;97.90
9668;DHT22;4872;48.316;10.650;2023-04-25T17:20:52;9.20;97.90
9668;DHT22;4872;48.316;10.650;2023-04-25T17:23:21;9.60;98.10
9668;DHT22;4872;48.316;10.650;2023-04-25T17:25:48;9.20;97.70
9668;DHT22;4872;48.316;10.650;2023-04-25T17:28:15;9.10;97.70
9668;DHT22;4872;48.316;10.650;2023-04-25T17:30:43;9.40;98.00
9668;DHT22;4872;48.316;10.650;2023-04-25T17:33:09;8.90;97.60
9668;DHT22;4872;48.316;10.650;2023-04-25T17:35:36;8.90;97.80
9668;DHT22;4872;48.316;10.650;2023-04-25T17:38:03;9.10;98.10
9668;DHT22;4872;48.316;10.650;2023-04-25T17:40:31;8.80;98.00
9668;DHT22;4872;48.316;10.650;2023-04-25T17:42:58;8.80;98.10
9668;DHT22;4872;48.316;10.650;2023-04-25T17:45:25;9.30;98.40
9668;DHT22;4872;48.316;10.650;2023-04-25T17:47:53;8.80;98.40
9668;DHT22;4872;48.316;10.650;2023-04-25T17:50:20;9.20;98.40
9668;DHT22;4872;48.316;10.650;2023-04-25T17:52:47;8.60;98.40
9668;DHT22;4872;48.316;10.650;2023-04-25T17:55:13;8.70;98.40
9668;DHT22;4872;48.316;10.650;2023-04-25T17:57:41;8.90;98.30
9668;DHT22;4872;48.316;10.650;2023-04-25T18:00:09;8.50;98.50
9668;DHT22;4872;48.316;10.650;2023-04-25T18:02:37;8.40;98.30
9668;DHT22;4872;48.316;10.650;2023-04-25T18:05:04;8.40;98.50
9668;DHT22;4872;48.316;10.650;2023-04-25T18:07:33;8.40;98.60
9668;DHT22;4872;48.316;10.650;2023-04-25T18:10:00;8.40;98.90
9668;DHT22;4872;48.316;10.650;2023-04-25T18:12:30;8.50;98.90
9668;DHT22;4872;48.316;10.650;2023-04-25T18:14:59;8.50;98.90
9668;DHT22;4872;48.316;10.650;2023-04-25T18:17:26;8.80;98.70
9668;DHT22;4872;48.316;10.650;2023-04-25T18:19:53;8.40;98.40
9668;DHT22;4872;48.316;10.650;2023-04-25T18:22:19;9.30;98.90
9668;DHT22;4872;48.316;10.650;2023-04-25T18:24:48;8.10;97.70
9668;DHT22;4872;48.316;10.650;2023-04-25T18:27:15;7.90;98.00
9668;DHT22;4872;48.316;10.650;2023-04-25T18:29:41;7.60;98.40
9668;DHT22;4872;48.316;10.650;2023-04-25T18:32:11;7.50;98.60
9668;DHT22;4872;48.316;10.650;2023-04-25T18:34:37;7.40;98.20
9668;DHT22;4872;48.316;10.650;2023-04-25T18:37:05;7.20;98.50
9668;DHT22;4872;48.316;10.650;2023-04-25T18:39:32;7.20;98.70
9668;DHT22;4872;48.316;10.650;2023-04-25T18:41:59;7.00;98.90
9668;DHT22;4872;48.316;10.650;2023-04-25T18:44:26;7.20;99.30
9668;DHT22;4872;48.316;10.650;2023-04-25T18:46:53;7.50;99.70
9668;DHT22;4872;48.316;10.650;2023-04-25T18:49:21;7.30;99.70
9668;DHT22;4872;48.316;10.650;2023-04-25T18:51:47;7.10;99.90
9668;DHT22;4872;48.316;10.650;2023-04-25T18:54:14;6.80;99.60
9668;DHT22;4872;48.316;10.650;2023-04-25T18:56:41;6.80;99.60
9668;DHT22;4872;48.316;10.650;2023-04-25T18:59:08;6.80;99.70
9668;DHT22;4872;48.316;10.650;2023-04-25T19:01:35;6.80;99.20
9668;DHT22;4872;48.316;10.650;2023-04-25T19:04:02;6.80;99.30
9668;DHT22;4872;48.316;10.650;2023-04-25T19:06:30;6.80;99.40
9668;DHT22;4872;48.316;10.650;2023-04-25T19:08:57;6.90;99.50
9668;DHT22;4872;48.316;10.650;2023-04-25T19:11:24;6.90;99.70
9668;DHT22;4872;48.316;10.650;2023-04-25T19:13:51;7.00;99.40
9668;DHT22;4872;48.316;10.650;2023-04-25T19:16:19;7.60;99.70
9668;DHT22;4872;48.316;10.650;2023-04-25T19:18:46;8.40;99.90
9668;DHT22;4872;48.316;10.650;2023-04-25T19:21:16;7.20;99.00
9668;DHT22;4872;48.316;10.650;2023-04-25T19:23:44;8.50;99.80
9668;DHT22;4872;48.316;10.650;2023-04-25T19:26:10;7.30;99.30
9668;DHT22;4872;48.316;10.650;2023-04-25T19:28:37;7.30;99.20
9668;DHT22;4872;48.316;10.650;2023-04-25T19:31:04;7.60;99.50
9668;DHT22;4872;48.316;10.650;2023-04-25T19:33:31;7.40;99.20
9668;DHT22;4872;48.316;10.650;2023-04-25T19:35:58;7.40;99.10
9668;DHT22;4872;48.316;10.650;2023-04-25T19:38:25;7.50;99.20
9668;DHT22;4872;48.316;10.650;2023-04-25T19:40:53;7.50;99.10
9668;DHT22;4872;48.316;10.650;2023-04-25T19:43:20;7.70;99.30
9668;DHT22;4872;48.316;10.650;2023-04-25T19:45:46;7.50;99.50
9668;DHT22;4872;48.316;10.650;2023-04-25T19:48:13;7.40;99.40
9668;DHT22;4872;48.316;10.650;2023-04-25T19:50:40;7.30;99.40
9668;DHT22;4872;48.316;10.650;2023-04-25T19:53:07;7.10;99.40
9668;DHT22;4872;48.316;10.650;2023-04-25T19:55:34;7.00;99.70
9668;DHT22;4872;48.316;10.650;2023-04-25T19:58:03;6.90;99.90
9668;DHT22;4872;48.316;10.650;2023-04-25T20:00:31;7.90;99.90
9668;DHT22;4872;48.316;10.650;2023-04-25T20:02:58;6.70;99.90
9668;DHT22;4872;48.316;10.650;2023-04-25T20:05:25;6.70;99.90
9668;DHT22;4872;48.316;10.650;2023-04-25T20:07:52;6.80;99.90